Terminal Aerodrome Forecast
Issued by NWS Atlanta, GA

Home | Current Version | Previous Version | Text Only | Print | Product List | Glossary On
Versions: 1 2 3 4 5 6 7 8 9 10 11 12
000
FTUS42 KFFC 281100
TAFMCN
TAF
KMCN 281123Z 2812/2912 00000KT P6SM FEW250
     FM281600 20004KT P6SM FEW050
     FM290000 00000KT P6SM FEW250=

USA.gov is the U.S. government's official web portal to all federal, state and local government web resources and services.